createdAt,value
2022-08-01T00:00:48.837Z,26.74
2022-08-01T00:03:16.329Z,27.24
2022-08-01T00:05:45.676Z,27.01
2022-08-01T00:08:13.205Z,27.39
2022-08-01T00:10:40.777Z,26.76
2022-08-01T00:13:08.240Z,26.97
2022-08-01T00:15:38.118Z,26.54
2022-08-01T00:18:08.253Z,26.71
2022-08-01T00:20:35.642Z,26.85
2022-08-01T00:23:06.345Z,26.62
2022-08-01T00:25:34.758Z,26.07
2022-08-01T00:28:04.032Z,25.84
2022-08-01T00:30:32.388Z,26.35
2022-08-01T00:33:00.095Z,26.90
2022-08-01T00:35:27.741Z,27.22
2022-08-01T00:37:55.985Z,27.50
2022-08-01T00:40:23.756Z,26.45
2022-08-01T00:42:51.140Z,25.34
2022-08-01T00:45:18.594Z,25.26
2022-08-01T00:47:45.952Z,25.70
2022-08-01T00:50:13.385Z,25.87
2022-08-01T00:52:42.165Z,25.49
2022-08-01T00:55:14.913Z,24.75
2022-08-01T00:58:05.181Z,25.49
2022-08-01T01:00:32.868Z,25.01
2022-08-01T01:03:02.202Z,24.56
2022-08-01T01:05:31.834Z,24.56
2022-08-01T01:08:09.440Z,24.63
2022-08-01T01:11:05.423Z,23.97
2022-08-01T01:13:35.602Z,25.12
2022-08-01T01:16:18.857Z,25.35
2022-08-01T01:18:54.369Z,24.73
2022-08-01T01:21:22.427Z,25.62
2022-08-01T01:24:10.731Z,25.31
2022-08-01T01:27:05.441Z,25.01
2022-08-01T01:29:59.334Z,23.88
2022-08-01T01:32:43.150Z,24.23
2022-08-01T01:35:33.828Z,24.09
2022-08-01T01:38:17.437Z,24.45
2022-08-01T01:40:46.701Z,24.48
2022-08-01T01:43:16.488Z,24.32
2022-08-01T01:45:47.245Z,23.93
2022-08-01T01:48:20.706Z,24.06
2022-08-01T01:50:50.205Z,25.33
2022-08-01T01:53:21.586Z,25.31
2022-08-01T01:55:51.954Z,25.12
2022-08-01T01:58:21.747Z,25.19
2022-08-01T02:00:51.163Z,25.52
2022-08-01T02:03:20.032Z,25.88
2022-08-01T02:05:51.315Z,26.17
2022-08-01T02:08:20.246Z,25.08
2022-08-01T02:11:07.965Z,23.94
2022-08-01T02:13:37.779Z,24.62
2022-08-01T02:16:06.668Z,24.96
2022-08-01T02:18:34.800Z,24.70
2022-08-01T02:21:06.932Z,23.94
2022-08-01T02:23:37.594Z,24.35
2022-08-01T02:26:11.761Z,24.57
2022-08-01T02:28:56.425Z,23.82
2022-08-01T02:31:24.873Z,24.15
2022-08-01T02:33:58.480Z,23.77
2022-08-01T02:36:32.976Z,23.34
2022-08-01T02:39:06.025Z,23.10
2022-08-01T02:41:37.467Z,23.90
2022-08-01T02:44:08.229Z,24.86
2022-08-01T02:46:44.155Z,24.81
2022-08-01T02:49:13.243Z,25.22
2022-08-01T02:51:42.437Z,25.42
2022-08-01T02:54:11.695Z,25.79
2022-08-01T02:56:42.017Z,25.38
2022-08-01T02:59:14.367Z,25.70
2022-08-01T03:01:44.728Z,25.95
2022-08-01T03:04:14.030Z,25.34
2022-08-01T03:06:44.965Z,24.21
2022-08-01T03:09:14.398Z,23.19
2022-08-01T03:11:45.469Z,23.08
2022-08-01T03:14:14.425Z,23.38
2022-08-01T03:16:49.377Z,23.77
2022-08-01T03:19:17.428Z,24.27
2022-08-01T03:21:45.862Z,23.98
2022-08-01T03:24:15.213Z,23.51
2022-08-01T03:26:44.007Z,23.73
2022-08-01T03:29:17.200Z,24.15
2022-08-01T03:31:46.809Z,23.70
2022-08-01T03:34:14.394Z,23.45
2022-08-01T03:36:51.233Z,22.94
2022-08-01T03:39:21.965Z,23.68
2022-08-01T03:41:56.895Z,24.67
2022-08-01T03:44:27.074Z,25.04
2022-08-01T03:47:15.594Z,24.21
2022-08-01T03:49:46.157Z,23.97
2022-08-01T03:52:15.349Z,24.50
2022-08-01T03:54:50.593Z,24.91
2022-08-01T03:57:36.328Z,24.08
2022-08-01T04:00:10.668Z,23.28
2022-08-01T04:02:41.629Z,24.90
2022-08-01T04:05:09.348Z,25.04
2022-08-01T04:07:44.467Z,25.25
2022-08-01T04:10:12.588Z,25.20
2022-08-01T04:12:40.240Z,25.32
2022-08-01T04:15:08.195Z,24.58
2022-08-01T04:17:35.792Z,24.98
2022-08-01T04:20:07.043Z,24.43
2022-08-01T04:22:37.262Z,23.95
2022-08-01T04:25:12.760Z,23.55
2022-08-01T04:27:48.398Z,24.97
2022-08-01T04:30:24.066Z,25.21
2022-08-01T04:32:56.051Z,25.46
2022-08-01T04:36:03.792Z,25.36
2022-08-01T04:38:18.961Z,24.83
2022-08-01T04:40:49.725Z,24.37
2022-08-01T04:43:17.135Z,25.35
2022-08-01T04:45:46.180Z,26.10
2022-08-01T04:48:16.601Z,25.20
2022-08-01T04:50:44.352Z,26.46
2022-08-01T04:53:19.882Z,27.49
2022-08-01T04:55:47.827Z,27.77
2022-08-01T04:58:18.925Z,26.95
2022-08-01T05:00:47.910Z,28.01
2022-08-01T05:03:16.486Z,28.38
2022-08-01T05:05:44.077Z,28.53
2022-08-01T05:08:11.432Z,28.50
2022-08-01T05:10:39.235Z,28.07
2022-08-01T05:13:07.759Z,27.59
2022-08-01T05:15:39.711Z,27.56
2022-08-01T05:18:08.751Z,27.49
2022-08-01T05:20:38.370Z,27.36
2022-08-01T05:23:10.199Z,27.76
2022-08-01T05:25:57.262Z,27.33
2022-08-01T05:28:25.869Z,27.43
2022-08-01T05:30:56.190Z,27.81
2022-08-01T05:33:27.470Z,27.96
2022-08-01T05:35:55.021Z,28.01
2022-08-01T05:38:22.409Z,28.04
2022-08-01T05:40:49.937Z,28.27
2022-08-01T05:43:17.551Z,27.94
2022-08-01T05:45:45.843Z,27.61
2022-08-01T05:48:13.446Z,28.00
2022-08-01T05:50:41.071Z,28.20
2022-08-01T05:53:08.573Z,28.07
2022-08-01T05:55:36.958Z,27.58
2022-08-01T05:58:04.468Z,27.88
2022-08-01T06:00:32.207Z,28.03
2022-08-01T06:02:59.749Z,28.44
2022-08-01T06:05:27.116Z,28.97
2022-08-01T06:07:55.009Z,29.39
2022-08-01T06:10:22.446Z,29.23
2022-08-01T06:12:49.870Z,28.99
2022-08-01T06:15:17.280Z,28.70
2022-08-01T06:17:44.640Z,28.65
2022-08-01T06:20:12.194Z,28.96
2022-08-01T06:22:39.753Z,29.49
2022-08-01T06:25:09.205Z,29.70
2022-08-01T06:27:37.050Z,30.07
2022-08-01T06:30:06.250Z,29.95
2022-08-01T06:32:33.758Z,30.65
2022-08-01T06:35:00.961Z,30.36
2022-08-01T06:37:33.097Z,31.09
2022-08-01T06:40:12.226Z,31.27
2022-08-01T06:42:42.329Z,31.08
2022-08-01T06:45:11.399Z,31.20
2022-08-01T06:47:39.762Z,31.53
2022-08-01T06:50:09.681Z,30.47
2022-08-01T06:52:38.362Z,30.19
2022-08-01T06:55:06.932Z,29.90
2022-08-01T06:57:34.379Z,30.16
2022-08-01T07:00:14.036Z,30.12
2022-08-01T07:02:42.308Z,30.66
2022-08-01T07:05:10.581Z,30.51
2022-08-01T07:07:39.186Z,30.58
2022-08-01T07:10:07.210Z,30.67
2022-08-01T07:12:35.310Z,30.28
2022-08-01T07:15:02.655Z,30.53
2022-08-01T07:17:31.041Z,29.99
2022-08-01T07:19:58.532Z,30.14
2022-08-01T07:22:25.924Z,30.35
2022-08-01T07:24:54.845Z,30.38
2022-08-01T07:27:25.699Z,29.89
2022-08-01T07:29:53.821Z,30.47
2022-08-01T07:32:21.449Z,30.82
2022-08-01T07:34:48.914Z,30.96
2022-08-01T07:37:16.300Z,30.91
2022-08-01T07:39:44.112Z,30.24
2022-08-01T07:42:12.628Z,30.56
2022-08-01T07:44:41.437Z,30.80
2022-08-01T07:47:08.715Z,30.81
2022-08-01T07:49:40.236Z,31.18
2022-08-01T07:52:09.118Z,31.46
2022-08-01T07:54:36.479Z,31.52
2022-08-01T07:57:04.679Z,31.50
2022-08-01T07:59:32.220Z,31.47
2022-08-01T08:02:00.145Z,31.45
2022-08-01T08:04:28.748Z,31.71
2022-08-01T08:06:56.269Z,31.77
2022-08-01T08:09:24.229Z,31.40
2022-08-01T08:11:51.690Z,31.49
2022-08-01T08:14:19.895Z,31.46
2022-08-01T08:16:47.443Z,32.07
2022-08-01T08:19:15.056Z,32.71
2022-08-01T08:21:42.854Z,32.51
2022-08-01T08:24:25.839Z,32.61
2022-08-01T08:26:59.798Z,32.57
2022-08-01T08:29:28.803Z,32.11
2022-08-01T08:31:56.989Z,32.54
2022-08-01T08:34:26.215Z,32.53
2022-08-01T08:36:54.459Z,32.77
2022-08-01T08:39:21.807Z,33.28
2022-08-01T08:41:50.176Z,32.94
2022-08-01T08:44:18.685Z,33.61
2022-08-01T08:46:48.241Z,33.84
2022-08-01T08:49:21.901Z,33.06
2022-08-01T08:51:52.419Z,33.15
2022-08-01T08:54:30.992Z,33.83
2022-08-01T08:57:03.972Z,34.25
2022-08-01T08:59:31.470Z,35.07
2022-08-01T09:01:59.922Z,35.04
2022-08-01T09:04:27.970Z,33.60
2022-08-01T09:06:55.987Z,33.25
2022-08-01T09:09:24.920Z,33.31
2022-08-01T09:11:56.902Z,33.36
2022-08-01T09:41:16.738Z,37.12
2022-08-01T09:43:52.149Z,35.86
2022-08-01T09:46:22.530Z,36.28
2022-08-01T09:49:29.023Z,37.00
2022-08-01T09:52:18.752Z,36.32
2022-08-01T09:55:04.433Z,36.63
2022-08-01T09:57:32.523Z,35.85
2022-08-01T10:00:02.942Z,37.36
2022-08-01T10:02:44.345Z,36.10
2022-08-01T10:05:19.024Z,35.67
2022-08-01T10:08:00.802Z,34.68
2022-08-01T10:10:31.449Z,34.84
2022-08-01T10:13:00.619Z,35.16
2022-08-01T10:15:37.322Z,35.60
2022-08-01T10:18:16.690Z,35.73
2022-08-01T10:20:53.166Z,36.05
2022-08-01T10:23:39.939Z,34.24
2022-08-01T10:26:14.215Z,34.69
2022-08-01T10:28:45.946Z,34.53
2022-08-01T10:31:14.628Z,34.51
2022-08-01T10:33:50.508Z,34.73
2022-08-01T10:36:25.411Z,35.02
2022-08-01T10:38:56.681Z,35.42
2022-08-01T10:41:27.496Z,35.02
2022-08-01T10:43:55.412Z,34.96
2022-08-01T10:46:23.131Z,35.73
2022-08-01T10:49:24.363Z,35.76
2022-08-01T10:51:54.470Z,35.18
2022-08-01T10:54:28.625Z,35.71
2022-08-01T10:57:00.983Z,35.98
2022-08-01T10:59:50.205Z,35.52
2022-08-01T11:02:33.178Z,36.54
2022-08-01T11:05:09.666Z,37.00
2022-08-01T11:07:50.501Z,36.25
2022-08-01T11:10:24.345Z,37.13
2022-08-01T11:12:52.176Z,36.58
2022-08-01T11:15:30.023Z,36.24
2022-08-01T11:18:01.810Z,36.72
2022-08-01T11:20:39.578Z,35.58
2022-08-01T11:23:12.014Z,36.50
2022-08-01T11:26:04.914Z,36.95
2022-08-01T11:28:34.605Z,37.18
2022-08-01T11:31:10.966Z,37.15
2022-08-01T11:33:46.916Z,36.10
2022-08-01T11:36:15.525Z,36.48
2022-08-01T11:38:49.314Z,36.37
2022-08-01T11:41:38.590Z,37.95
2022-08-01T11:44:14.174Z,36.89
2022-08-01T11:47:01.051Z,37.43
2022-08-01T11:49:49.066Z,36.85
2022-08-01T11:52:28.933Z,37.02
2022-08-01T11:55:10.114Z,35.85
2022-08-01T11:57:39.285Z,36.16
2022-08-01T12:00:16.911Z,36.24
2022-08-01T12:02:49.378Z,35.98
2022-08-01T12:05:24.779Z,35.73
2022-08-01T12:07:54.653Z,35.67
2022-08-01T12:10:24.711Z,36.75
2022-08-01T12:12:58.820Z,36.29
2022-08-01T12:15:31.987Z,35.48
2022-08-01T12:18:01.788Z,35.42
2022-08-01T12:20:38.247Z,35.41
2022-08-01T12:23:10.444Z,36.22
2022-08-01T12:25:40.444Z,35.61
2022-08-01T12:28:09.715Z,35.48
2022-08-01T12:30:40.165Z,35.21
2022-08-01T12:33:10.014Z,35.92
2022-08-01T12:35:39.046Z,35.98
2022-08-01T12:38:19.287Z,35.85
2022-08-01T12:40:52.913Z,35.15
2022-08-01T12:43:28.435Z,35.01
2022-08-01T12:45:59.663Z,35.03
2022-08-01T12:48:28.220Z,35.35
2022-08-01T12:50:59.072Z,35.27
2022-08-01T12:53:41.143Z,34.91
2022-08-01T12:56:11.722Z,34.46
2022-08-01T12:58:40.921Z,34.09
2022-08-01T13:01:15.386Z,34.02
2022-08-01T13:03:58.158Z,33.73
2022-08-01T13:06:30.292Z,33.64
2022-08-01T13:09:10.536Z,33.80
2022-08-01T13:11:38.143Z,33.66
2022-08-01T13:14:32.101Z,33.83
2022-08-01T13:16:59.489Z,33.72
2022-08-01T13:19:47.253Z,34.01
2022-08-01T13:22:14.665Z,33.65
2022-08-01T13:24:42.139Z,34.02
2022-08-01T13:27:25.182Z,33.74
2022-08-01T13:29:54.178Z,33.47
2022-08-01T13:32:29.861Z,33.68
2022-08-01T13:35:06.207Z,33.48
2022-08-01T13:37:33.709Z,33.05
2022-08-01T13:40:01.530Z,33.07
2022-08-01T13:42:30.716Z,32.84
2022-08-01T13:44:58.271Z,32.62
2022-08-01T13:47:31.635Z,32.67
2022-08-01T13:50:04.356Z,32.65
2022-08-01T13:52:32.596Z,32.37
2022-08-01T13:55:00.772Z,32.46
2022-08-01T13:57:36.716Z,32.47
2022-08-01T14:00:09.875Z,32.68
2022-08-01T14:02:40.391Z,32.33
2022-08-01T14:05:08.243Z,32.53
2022-08-01T14:07:35.675Z,32.63
2022-08-01T14:10:19.872Z,32.64
2022-08-01T14:12:49.346Z,32.37
2022-08-01T14:15:37.809Z,32.33
2022-08-01T14:18:09.529Z,32.13
2022-08-01T14:20:38.661Z,31.82
2022-08-01T14:23:08.835Z,31.63
2022-08-01T14:26:03.130Z,31.28
2022-08-01T14:28:31.419Z,31.76
2022-08-01T14:31:00.083Z,32.11
2022-08-01T14:33:30.586Z,31.64
2022-08-01T14:36:06.181Z,31.79
2022-08-01T14:38:49.184Z,31.67
2022-08-01T14:41:18.129Z,31.63
2022-08-01T14:43:45.971Z,31.82
2022-08-01T14:46:13.943Z,31.41
2022-08-01T14:48:41.667Z,31.39
2022-08-01T14:51:09.446Z,31.70
2022-08-01T14:53:38.019Z,31.54
2022-08-01T14:56:06.831Z,31.39
2022-08-01T14:58:34.627Z,31.41
2022-08-01T15:01:02.237Z,31.59
2022-08-01T15:03:29.960Z,31.57
2022-08-01T15:05:57.422Z,31.41
2022-08-01T15:08:24.838Z,31.41
2022-08-01T15:10:53.723Z,31.00
2022-08-01T15:13:21.073Z,31.11
2022-08-01T15:15:49.639Z,30.93
2022-08-01T15:18:17.579Z,31.22
2022-08-01T15:20:45.166Z,31.25
2022-08-01T15:23:13.065Z,31.02
2022-08-01T15:25:41.386Z,31.05
2022-08-01T15:28:11.158Z,31.03
2022-08-01T15:30:38.829Z,31.00
2022-08-01T15:33:06.468Z,31.13
2022-08-01T15:35:34.097Z,31.03
2022-08-01T15:38:01.583Z,30.99
2022-08-01T15:40:29.700Z,31.20
2022-08-01T15:42:57.228Z,30.98
2022-08-01T15:48:12.334Z,30.71
2022-08-01T15:50:42.075Z,30.34
2022-08-01T15:53:09.538Z,30.73
2022-08-01T15:55:38.481Z,30.59
2022-08-01T15:58:06.747Z,30.07
2022-08-01T16:00:39.255Z,30.00
2022-08-01T16:03:10.753Z,29.80
2022-08-01T16:05:43.549Z,29.96
2022-08-01T16:08:12.783Z,29.70
2022-08-01T16:10:43.525Z,30.01
2022-08-01T16:13:11.683Z,29.69
2022-08-01T16:15:39.637Z,29.29
2022-08-01T16:18:13.560Z,29.01
2022-08-01T16:20:45.359Z,29.22
2022-08-01T16:23:15.645Z,29.20
2022-08-01T16:25:44.982Z,29.14
2022-08-01T16:28:12.624Z,28.98
2022-08-01T16:30:54.372Z,29.40
2022-08-01T16:33:50.230Z,29.06
2022-08-01T16:36:16.933Z,29.15
2022-08-01T16:38:45.964Z,29.06
2022-08-01T16:41:19.784Z,28.87
2022-08-01T16:43:53.064Z,28.65
2022-08-01T16:46:27.044Z,28.31
2022-08-01T16:48:55.190Z,28.56
2022-08-01T16:51:22.935Z,28.53
2022-08-01T16:53:50.382Z,28.42
2022-08-01T16:56:17.946Z,28.39
2022-08-01T16:58:45.472Z,28.30
2022-08-01T17:01:59.461Z,28.20
2022-08-01T17:04:05.071Z,28.27
2022-08-01T17:06:34.515Z,28.23
2022-08-01T17:09:04.844Z,28.00
2022-08-01T17:11:32.897Z,28.01
2022-08-01T17:14:00.277Z,27.84
2022-08-01T17:16:27.812Z,27.81
2022-08-01T17:18:55.302Z,27.79
2022-08-01T17:21:22.827Z,27.78
2022-08-01T17:23:50.348Z,27.72
2022-08-01T17:26:18.065Z,27.88
2022-08-01T17:28:45.501Z,27.72
2022-08-01T17:31:13.029Z,27.39
2022-08-01T17:33:45.470Z,27.52
2022-08-01T17:36:19.305Z,27.70
2022-08-01T17:38:50.162Z,27.51
2022-08-01T17:41:19.511Z,27.40
2022-08-01T17:43:48.596Z,27.30
2022-08-01T17:46:23.548Z,27.31
2022-08-01T17:49:06.268Z,27.46
2022-08-01T17:51:33.957Z,27.21
2022-08-01T17:54:01.313Z,27.08
2022-08-01T17:56:29.073Z,26.91
2022-08-01T17:58:56.998Z,26.85
2022-08-01T18:01:27.099Z,26.61
2022-08-01T18:03:57.449Z,26.71
2022-08-01T18:06:26.703Z,26.51
2022-08-01T18:08:56.605Z,26.56
2022-08-01T18:11:27.781Z,26.57
2022-08-01T18:13:59.802Z,26.51
2022-08-01T18:16:28.440Z,26.43
2022-08-01T18:18:56.308Z,26.34
2022-08-01T18:21:24.272Z,26.33
2022-08-01T18:23:53.248Z,26.28
2022-08-01T18:26:21.652Z,26.15
2022-08-01T18:28:49.398Z,26.25
2022-08-01T18:31:18.003Z,26.18
2022-08-01T18:33:46.430Z,25.98
2022-08-01T18:36:25.466Z,26.15
2022-08-01T18:39:04.473Z,26.02
2022-08-01T18:41:34.220Z,25.99
2022-08-01T18:44:05.851Z,26.11
2022-08-01T18:46:37.364Z,25.95
2022-08-01T18:49:06.617Z,25.88
2022-08-01T18:51:34.454Z,26.12
2022-08-01T18:54:01.896Z,26.36
2022-08-01T18:56:29.666Z,26.18
2022-08-01T18:58:57.200Z,25.77
2022-08-01T19:01:24.908Z,26.13
2022-08-01T19:03:52.879Z,26.52
2022-08-01T19:06:20.311Z,27.17
2022-08-01T19:08:49.378Z,28.18
2022-08-01T19:11:16.923Z,29.25
2022-08-01T19:13:44.302Z,28.78
2022-08-01T19:16:11.790Z,27.61
2022-08-01T19:18:41.266Z,26.79
2022-08-01T19:21:08.876Z,26.51
2022-08-01T19:23:54.816Z,26.39
2022-08-01T19:26:26.286Z,26.78
2022-08-01T19:28:58.653Z,27.62
2022-08-01T19:31:28.419Z,27.37
2022-08-01T19:33:58.874Z,28.65
2022-08-01T19:36:28.717Z,27.90
2022-08-01T19:38:57.575Z,27.72
2022-08-01T19:41:25.038Z,28.47
2022-08-01T19:43:52.743Z,28.40
2022-08-01T19:46:20.941Z,28.00
2022-08-01T19:48:53.929Z,27.98
2022-08-01T19:51:33.650Z,27.91
2022-08-01T19:54:05.957Z,27.50
2022-08-01T19:56:40.538Z,27.13
2022-08-01T19:59:08.993Z,26.61
2022-08-01T20:01:37.441Z,26.28
2022-08-01T20:04:06.190Z,25.98
2022-08-01T20:06:35.554Z,25.86
2022-08-01T20:09:04.058Z,25.63
2022-08-01T20:11:31.494Z,25.56
2022-08-01T20:14:00.741Z,25.52
2022-08-01T20:16:30.060Z,25.49
2022-08-01T20:18:57.518Z,25.40
2022-08-01T20:21:27.928Z,25.30
2022-08-01T20:24:02.811Z,25.32
2022-08-01T20:26:31.497Z,25.17
2022-08-01T20:29:05.097Z,25.08
2022-08-01T20:31:42.848Z,24.99
2022-08-01T20:34:15.546Z,25.08
2022-08-01T20:36:48.062Z,25.04
2022-08-01T20:39:25.195Z,24.87
2022-08-01T20:42:00.223Z,24.76
2022-08-01T20:44:32.752Z,24.60
2022-08-01T20:47:03.864Z,24.56
2022-08-01T20:49:32.806Z,24.77
2022-08-01T20:52:10.914Z,24.74
2022-08-01T20:54:41.341Z,24.69
2022-08-01T20:57:28.314Z,24.57
2022-08-01T21:00:06.019Z,24.53
2022-08-01T21:03:08.245Z,24.64
2022-08-01T21:05:41.769Z,24.59
2022-08-01T21:08:47.726Z,24.46
2022-08-01T21:11:22.589Z,24.64
2022-08-01T21:13:51.771Z,24.67
2022-08-01T21:16:28.939Z,24.60
2022-08-01T21:19:18.446Z,24.79
2022-08-01T21:22:10.343Z,24.67
2022-08-01T21:24:57.934Z,24.68
2022-08-01T21:27:33.561Z,24.61
2022-08-01T21:30:02.486Z,24.69
2022-08-01T21:32:33.171Z,24.52
2022-08-01T21:35:02.025Z,24.31
2022-08-01T21:37:31.270Z,24.29
2022-08-01T21:40:02.786Z,24.33
2022-08-01T21:42:39.503Z,24.31
2022-08-01T21:45:09.795Z,24.27
2022-08-01T21:47:38.301Z,24.37
2022-08-01T21:50:06.667Z,24.22
2022-08-01T21:52:51.388Z,24.25
2022-08-01T21:55:36.119Z,24.42
2022-08-01T21:58:19.640Z,25.08
2022-08-01T22:00:54.369Z,25.37
2022-08-01T22:03:30.716Z,26.17
2022-08-01T22:06:01.678Z,27.25
2022-08-01T22:08:37.857Z,27.03
2022-08-01T22:11:12.977Z,26.14
2022-08-01T22:13:42.271Z,26.09
2022-08-01T22:16:13.313Z,25.59
2022-08-01T22:18:41.105Z,25.85
2022-08-01T22:21:09.959Z,26.30
2022-08-01T22:23:38.336Z,26.36
2022-08-01T22:26:08.047Z,26.61
2022-08-01T22:28:36.971Z,26.64
2022-08-01T22:31:07.062Z,26.54
2022-08-01T22:33:40.337Z,26.22
2022-08-01T22:36:08.387Z,25.92
2022-08-01T22:38:35.821Z,25.19
2022-08-01T22:41:09.948Z,26.10
2022-08-01T22:44:03.721Z,26.36
2022-08-01T22:46:54.566Z,26.40
2022-08-01T22:49:45.768Z,26.12
2022-08-01T22:52:29.025Z,25.67
2022-08-01T22:55:08.621Z,25.31
2022-08-01T22:58:04.001Z,25.79
2022-08-01T23:00:34.562Z,26.70
2022-08-01T23:03:24.760Z,27.41
2022-08-01T23:06:11.430Z,26.56
2022-08-01T23:08:43.893Z,26.55
2022-08-01T23:11:12.002Z,26.34
2022-08-01T23:13:40.169Z,25.73
2022-08-01T23:16:08.792Z,26.20
2022-08-01T23:18:36.498Z,26.44
2022-08-01T23:21:13.553Z,26.10
2022-08-01T23:23:41.281Z,25.83
2022-08-01T23:26:10.946Z,26.51
2022-08-01T23:28:40.282Z,26.50
2022-08-01T23:31:07.744Z,25.94
2022-08-01T23:33:35.082Z,25.96
2022-08-01T23:36:02.461Z,25.93
2022-08-01T23:38:30.030Z,26.68
2022-08-01T23:40:57.441Z,26.90
2022-08-01T23:43:24.847Z,27.26
2022-08-01T23:46:03.204Z,26.84
2022-08-01T23:48:35.130Z,25.54
2022-08-01T23:51:06.539Z,25.53
2022-08-01T23:53:36.600Z,25.61
2022-08-01T23:56:05.909Z,25.32
2022-08-01T23:58:33.917Z,24.46
